createdAt,value
2018-05-11T00:00:50.066Z,23.1
2018-05-11T00:01:39.867Z,23.1
2018-05-11T00:02:30.469Z,23.1
2018-05-11T00:03:20.521Z,23.1
2018-05-11T00:04:10.585Z,23.1
2018-05-11T00:05:00.418Z,23.1
2018-05-11T00:05:50.739Z,23.1
2018-05-11T00:06:40.515Z,23.1
2018-05-11T00:07:30.550Z,23.1
2018-05-11T00:08:20.940Z,23.1
2018-05-11T00:09:10.151Z,23.1
2018-05-11T00:10:00.740Z,23.1
2018-05-11T00:10:51.259Z,23.1
2018-05-11T00:11:41.149Z,23
2018-05-11T00:12:30.655Z,23.1
2018-05-11T00:13:21.035Z,23.1
2018-05-11T00:14:11.349Z,23.1
2018-05-11T00:15:00.623Z,23.1
2018-05-11T00:15:51.488Z,23.1
2018-05-11T00:16:41.543Z,23.1
2018-05-11T00:17:31.326Z,23.1
2018-05-11T00:18:21.414Z,23.1
2018-05-11T00:19:11.462Z,23.1
2018-05-11T00:20:01.807Z,23.1
2018-05-11T00:20:51.027Z,23.1
2018-05-11T00:21:41.645Z,23
2018-05-11T00:22:32.009Z,23.1
2018-05-11T00:23:22.357Z,23.1
2018-05-11T00:24:11.278Z,23.1
2018-05-11T00:25:01.964Z,23.1
2018-05-11T00:25:51.430Z,23.1
2018-05-11T00:26:42.293Z,23.1
2018-05-11T00:27:31.807Z,23.1
2018-05-11T00:28:22.149Z,23.1
2018-05-11T00:29:12.220Z,23.1
2018-05-11T00:30:02.288Z,23.1
2018-05-11T00:30:52.652Z,23.1
2018-05-11T00:31:42.709Z,23.1
2018-05-11T00:32:32.567Z,23.1
2018-05-11T00:33:22.613Z,23.1
2018-05-11T00:34:12.881Z,23.1
2018-05-11T00:35:02.686Z,23.1
2018-05-11T00:35:52.454Z,23.1
2018-05-11T00:36:43.062Z,23.1
2018-05-11T00:37:32.597Z,23.1
2018-05-11T00:38:22.418Z,23.1
2018-05-11T00:39:13.295Z,23.1
2018-05-11T00:40:03.387Z,23.1
2018-05-11T00:40:53.393Z,23.1
2018-05-11T00:41:42.326Z,23.1
2018-05-11T00:42:33.240Z,23.1
2018-05-11T00:43:23.317Z,23.1
2018-05-11T00:44:12.824Z,23.1
2018-05-11T00:45:03.113Z,23.1
2018-05-11T00:45:53.497Z,23.1
2018-05-11T00:46:43.538Z,23.1
2018-05-11T00:47:33.598Z,23.1
2018-05-11T00:48:23.947Z,23.1
2018-05-11T00:49:14.093Z,23.1
2018-05-11T00:50:03.802Z,23.1
2018-05-11T00:50:54.128Z,23.1
2018-05-11T00:51:43.110Z,23.1
2018-05-11T00:52:33.702Z,23.1
2018-05-11T00:53:24.345Z,23.1
2018-05-11T00:54:14.371Z,23.1
2018-05-11T00:55:04.197Z,23.1
2018-05-11T00:55:53.460Z,23.1
2018-05-11T00:56:44.290Z,23.1
2018-05-11T00:57:34.638Z,23.1
2018-05-11T00:58:24.424Z,23.1
2018-05-11T00:59:14.536Z,23.1
2018-05-11T01:00:04.541Z,23.1
2018-05-11T01:00:54.936Z,23.1
2018-05-11T01:01:44.975Z,23.1
2018-05-11T01:02:34.593Z,23.1
2018-05-11T01:03:24.288Z,23.1
2018-05-11T01:04:14.617Z,23.1
2018-05-11T01:05:04.763Z,23.1
2018-05-11T01:05:55.067Z,23.1
2018-05-11T01:06:45.126Z,23.1
2018-05-11T01:07:35.239Z,23.1
2018-05-11T01:08:23.953Z,23.1
2018-05-11T01:09:14.701Z,23.1
2018-05-11T01:10:04.810Z,23.1
2018-05-11T01:10:55.169Z,23.1
2018-05-11T01:11:45.156Z,23.1
2018-05-11T01:12:34.934Z,23.1
2018-05-11T01:13:24.526Z,23.1
2018-05-11T01:14:15.129Z,23.1
2018-05-11T01:15:05.620Z,23.1
2018-05-11T01:15:54.928Z,23.1
2018-05-11T01:16:45.586Z,23.1
2018-05-11T01:17:36.147Z,23.1
2018-05-11T01:18:25.941Z,23.1
2018-05-11T01:19:15.997Z,23.1
2018-05-11T01:20:06.328Z,23.1
2018-05-11T01:20:55.569Z,23.1
2018-05-11T01:21:46.472Z,23.1
2018-05-11T01:22:36.267Z,23.1
2018-05-11T01:23:26.596Z,23.1
2018-05-11T01:24:15.816Z,23.1
2018-05-11T01:25:06.450Z,23.1
2018-05-11T01:25:56.832Z,23.1
2018-05-11T01:26:46.572Z,23.1
2018-05-11T01:27:36.658Z,23.1
2018-05-11T01:28:27.040Z,23
2018-05-11T01:29:17.074Z,23.1
2018-05-11T01:30:06.848Z,23.1
2018-05-11T01:30:56.634Z,23.1
2018-05-11T01:31:47.250Z,23.1
2018-05-11T01:32:37.301Z,23.1
2018-05-11T01:33:26.823Z,23.1
2018-05-11T01:34:17.474Z,23.1
2018-05-11T01:35:07.223Z,23.1
2018-05-11T01:35:56.711Z,23.1
2018-05-11T01:36:47.692Z,23.1
2018-05-11T01:37:37.434Z,23.1
2018-05-11T01:38:27.459Z,23.1
2018-05-11T01:39:17.798Z,23.1
2018-05-11T01:40:06.754Z,23.1
2018-05-11T01:40:57.401Z,23.1
2018-05-11T01:41:47.475Z,23.1
2018-05-11T01:42:37.880Z,23.1
2018-05-11T01:43:27.871Z,23.1
2018-05-11T01:44:17.660Z,23.1
2018-05-11T01:45:07.706Z,23.1
2018-05-11T01:45:58.052Z,23.1
2018-05-11T01:46:47.274Z,23.1
2018-05-11T01:47:37.919Z,23.1
2018-05-11T01:48:28.549Z,23.1
2018-05-11T01:49:18.307Z,23.1
2018-05-11T01:50:08.384Z,23.1
2018-05-11T01:50:58.443Z,23.1
2018-05-11T01:51:48.744Z,23.1
2018-05-11T01:52:38.551Z,23.1
2018-05-11T01:53:28.361Z,23.1
2018-05-11T01:54:18.117Z,23.1
2018-05-11T01:55:08.774Z,23.1
2018-05-11T01:55:58.528Z,23.1
2018-05-11T01:56:48.567Z,23.1
2018-05-11T01:57:38.463Z,23.1
2018-05-11T01:58:29.049Z,23.1
2018-05-11T01:59:19.344Z,23.1
2018-05-11T02:00:09.429Z,23.1
2018-05-11T02:00:58.991Z,23.1
2018-05-11T02:01:49.336Z,23.1
2018-05-11T02:02:39.573Z,23.1
2018-05-11T02:03:29.666Z,23.1
2018-05-11T02:04:18.922Z,23.1
2018-05-11T02:05:09.268Z,23.1
2018-05-11T02:05:58.812Z,23.1
2018-05-11T02:06:49.690Z,23.1
2018-05-11T02:07:39.774Z,23.1
2018-05-11T02:08:29.504Z,23.1
2018-05-11T02:09:19.827Z,23.1
2018-05-11T02:10:09.630Z,23.1
2018-05-11T02:11:00.230Z,23.1
2018-05-11T02:11:49.520Z,23.1
2018-05-11T02:12:40.332Z,23.1
2018-05-11T02:13:29.878Z,23.1
2018-05-11T02:14:20.481Z,23.1
2018-05-11T02:15:09.142Z,23.1
2018-05-11T02:16:00.632Z,23.1
2018-05-11T02:16:49.788Z,23.1
2018-05-11T02:17:39.889Z,23.1
2018-05-11T02:18:30.815Z,23.1
2018-05-11T02:19:20.859Z,23.1
2018-05-11T02:20:10.906Z,23.1
2018-05-11T02:21:00.690Z,23.1
2018-05-11T02:21:50.481Z,23.1
2018-05-11T02:22:40.618Z,23.1
2018-05-11T02:23:30.913Z,23.1
2018-05-11T02:24:20.955Z,23.1
2018-05-11T02:25:11.015Z,23.1
2018-05-11T02:26:01.022Z,23.1
2018-05-11T02:26:50.583Z,23.1
2018-05-11T02:27:40.692Z,23.1
2018-05-11T02:28:31.530Z,23.1
2018-05-11T02:29:21.051Z,23.1
2018-05-11T02:30:11.397Z,23.1
2018-05-11T02:31:01.494Z,23.1
2018-05-11T02:31:51.801Z,23.1
2018-05-11T02:32:41.299Z,23.1
2018-05-11T02:33:31.663Z,23.1
2018-05-11T02:34:22.063Z,23.1
2018-05-11T02:35:11.829Z,23.1
2018-05-11T02:36:01.890Z,23.1
2018-05-11T02:36:51.742Z,23.1
2018-05-11T02:37:42.000Z,23.1
2018-05-11T02:38:32.417Z,23.1
2018-05-11T02:39:21.790Z,23.1
2018-05-11T02:40:12.164Z,23.1
2018-05-11T02:41:02.256Z,23.1
2018-05-11T02:41:52.308Z,23.1
2018-05-11T02:42:42.211Z,23.1
2018-05-11T02:43:32.524Z,23.1
2018-05-11T02:44:22.593Z,23.1
2018-05-11T02:45:12.551Z,23.1
2018-05-11T02:46:02.913Z,23.1
2018-05-11T02:46:52.949Z,23.1
2018-05-11T02:47:42.734Z,23.1
2018-05-11T02:48:32.830Z,23.1
2018-05-11T02:49:23.150Z,23.1
2018-05-11T02:50:13.226Z,23.1
2018-05-11T02:51:03.106Z,23.1
2018-05-11T02:51:53.026Z,23.1
2018-05-11T02:52:43.272Z,23.1
2018-05-11T02:53:33.429Z,23.1
2018-05-11T02:54:23.245Z,23.1
2018-05-11T02:55:13.053Z,23.1
2018-05-11T02:56:03.397Z,23.1
2018-05-11T02:56:53.752Z,23.1
2018-05-11T02:57:43.496Z,23.1
2018-05-11T02:58:33.567Z,23.2
2018-05-11T02:59:23.342Z,23.2
2018-05-11T03:00:13.709Z,23.2
2018-05-11T03:01:03.453Z,23.3
2018-05-11T03:01:53.582Z,23.2
2018-05-11T03:02:43.853Z,23.2
2018-05-11T03:03:34.295Z,23.2
2018-05-11T03:04:24.004Z,23.2
2018-05-11T03:05:14.088Z,23.1
2018-05-11T03:06:04.416Z,23.1
2018-05-11T03:06:53.934Z,23.1
2018-05-11T03:07:44.559Z,23.1
2018-05-11T03:08:34.321Z,23
2018-05-11T03:09:24.077Z,23
2018-05-11T03:10:13.594Z,23
2018-05-11T03:11:04.536Z,23
2018-05-11T03:11:54.594Z,23
2018-05-11T03:12:44.354Z,22.9
2018-05-11T03:13:34.995Z,22.9
2018-05-11T03:14:24.779Z,22.9
2018-05-11T03:15:14.828Z,22.9
2018-05-11T03:16:04.648Z,22.9
2018-05-11T03:16:54.651Z,22.9
2018-05-11T03:17:45.251Z,22.9
2018-05-11T03:18:36.323Z,22.9
2018-05-11T03:19:25.516Z,22.9
2018-05-11T03:20:15.540Z,22.9
2018-05-11T03:21:04.980Z,22.9
2018-05-11T03:21:55.313Z,22.9
2018-05-11T03:22:45.676Z,22.9
2018-05-11T03:23:35.437Z,22.8
2018-05-11T03:24:25.800Z,22.8
2018-05-11T03:25:16.058Z,22.8
2018-05-11T03:26:05.738Z,22.8
2018-05-11T03:26:55.972Z,22.8
2018-05-11T03:27:45.754Z,22.8
2018-05-11T03:28:35.812Z,22.8
2018-05-11T03:29:25.876Z,22.8
2018-05-11T03:30:15.447Z,22.8
2018-05-11T03:31:15.308Z,22.8
2018-05-11T03:32:04.860Z,22.8
2018-05-11T03:32:54.881Z,22.8
2018-05-11T03:33:44.664Z,22.8
2018-05-11T03:34:35.021Z,22.8
2018-05-11T03:35:25.372Z,22.8
2018-05-11T03:36:15.410Z,22.8
2018-05-11T03:37:05.492Z,22.8
2018-05-11T03:37:55.250Z,22.8
2018-05-11T03:38:45.605Z,22.8
2018-05-11T03:39:35.379Z,22.8
2018-05-11T03:40:25.723Z,22.8
2018-05-11T03:41:15.785Z,22.8
2018-05-11T03:42:05.053Z,22.8
2018-05-11T03:42:55.919Z,22.8
2018-05-11T03:43:45.997Z,22.8
2018-05-11T03:44:35.464Z,22.8
2018-05-11T03:45:25.799Z,22.8
2018-05-11T03:46:15.891Z,22.8
2018-05-11T03:47:06.209Z,22.8
2018-05-11T03:47:56.374Z,22.8
2018-05-11T03:48:46.085Z,22.8
2018-05-11T03:49:36.407Z,22.8
2018-05-11T03:50:25.931Z,22.8
2018-05-11T03:51:16.231Z,22.8
2018-05-11T03:52:06.647Z,22.8
2018-05-11T03:52:56.410Z,22.8
2018-05-11T03:53:46.467Z,22.8
2018-05-11T03:54:36.209Z,22.7
2018-05-11T03:55:26.576Z,22.8
2018-05-11T03:56:16.880Z,22.8
2018-05-11T03:57:06.415Z,22.7
2018-05-11T03:57:56.467Z,22.8
2018-05-11T03:58:47.148Z,22.7
2018-05-11T03:59:36.894Z,22.8
2018-05-11T04:00:27.216Z,22.7
2018-05-11T04:01:17.104Z,22.7
2018-05-11T04:02:07.484Z,22.7
2018-05-11T04:02:56.859Z,22.8
2018-05-11T04:03:47.502Z,22.8
2018-05-11T04:04:36.713Z,22.8
2018-05-11T04:05:27.618Z,22.7
2018-05-11T04:06:17.474Z,22.7
2018-05-11T04:07:07.733Z,22.7
2018-05-11T04:07:57.790Z,22.7
2018-05-11T04:08:47.870Z,22.7
2018-05-11T04:09:37.657Z,22.7
2018-05-11T04:10:27.729Z,22.7
2018-05-11T04:11:18.046Z,22.7
2018-05-11T04:12:07.846Z,22.7
2018-05-11T04:12:57.901Z,22.7
2018-05-11T04:13:47.684Z,22.7
2018-05-11T04:14:38.053Z,22.7
2018-05-11T04:15:28.376Z,22.7
2018-05-11T04:16:18.164Z,22.8
2018-05-11T04:17:08.242Z,22.7
2018-05-11T04:17:58.614Z,22.7
2018-05-11T04:18:48.061Z,22.7
2018-05-11T04:19:38.706Z,22.6
2018-05-11T04:20:28.793Z,22.6
2018-05-11T04:21:18.275Z,22.6
2018-05-11T04:22:08.898Z,22.6
2018-05-11T04:22:58.413Z,22.5
2018-05-11T04:23:48.759Z,22.5
2018-05-11T04:24:39.081Z,22.5
2018-05-11T04:25:28.893Z,22.5
2018-05-11T04:26:18.946Z,22.4
2018-05-11T04:27:09.263Z,22.4
2018-05-11T04:27:59.011Z,22.4
2018-05-11T04:28:49.403Z,22.4
2018-05-11T04:29:39.201Z,22.4
2018-05-11T04:30:29.008Z,22.4
2018-05-11T04:31:19.304Z,22.4
2018-05-11T04:32:09.673Z,22.4
2018-05-11T04:32:59.701Z,22.4
2018-05-11T04:33:49.526Z,22.4
2018-05-11T04:34:39.566Z,22.4
2018-05-11T04:35:29.630Z,22.4
2018-05-11T04:36:19.728Z,22.4
2018-05-11T04:37:10.444Z,22.4
2018-05-11T04:37:59.611Z,22.4
2018-05-11T04:38:49.457Z,22.4
2018-05-11T04:39:39.450Z,22.3
2018-05-11T04:40:29.327Z,22.3
2018-05-11T04:41:19.348Z,22.3
2018-05-11T04:42:09.440Z,22.3
2018-05-11T04:42:59.229Z,22.3
2018-05-11T04:43:49.541Z,22.3
2018-05-11T04:44:39.533Z,22.3
2018-05-11T04:45:29.697Z,22.3
2018-05-11T04:46:20.539Z,22.3
2018-05-11T04:47:10.784Z,22.3
2018-05-11T04:48:00.297Z,22.3
2018-05-11T04:48:50.969Z,22.3
2018-05-11T04:49:40.953Z,22.3
2018-05-11T04:50:30.809Z,22.3
2018-05-11T04:51:20.840Z,22.3
2018-05-11T04:52:11.171Z,22.3
2018-05-11T04:53:01.207Z,22.3
2018-05-11T04:53:51.021Z,22.3
2018-05-11T04:54:41.340Z,22.3
2018-05-11T04:55:31.151Z,22.3
2018-05-11T04:56:21.231Z,22.3
2018-05-11T04:57:11.260Z,22.3
2018-05-11T04:58:01.348Z,22.3
2018-05-11T04:58:51.654Z,22.3
2018-05-11T04:59:40.971Z,22.3
2018-05-11T05:00:31.794Z,22.3
2018-05-11T05:01:21.862Z,22.3
2018-05-11T05:02:11.357Z,22.3
2018-05-11T05:03:01.979Z,22.3
2018-05-11T05:03:51.490Z,22.3
2018-05-11T05:04:42.102Z,22.3
2018-05-11T05:05:32.426Z,22.3
2018-05-11T05:06:22.210Z,22.3
2018-05-11T05:07:12.391Z,22.3
2018-05-11T05:08:01.489Z,22.3
2018-05-11T05:08:52.143Z,22.3
2018-05-11T05:09:42.515Z,22.3
2018-05-11T05:10:32.353Z,22.3
2018-05-11T05:11:22.597Z,22.3
2018-05-11T05:12:12.220Z,22.3
2018-05-11T05:13:01.755Z,22.3
2018-05-11T05:13:52.048Z,22.3
2018-05-11T05:14:41.421Z,22.3
2018-05-11T05:15:31.485Z,22.3
2018-05-11T05:16:21.064Z,22.3
2018-05-11T05:17:12.175Z,22.3
2018-05-11T05:18:02.044Z,22.3
2018-05-11T05:18:52.713Z,22.3
2018-05-11T05:19:41.989Z,22.3
2018-05-11T05:20:32.572Z,22.3
2018-05-11T05:21:22.779Z,22.3
2018-05-11T05:22:13.399Z,22.3
2018-05-11T05:23:03.303Z,22.3
2018-05-11T05:23:53.290Z,22.3
2018-05-11T05:24:43.639Z,22.3
2018-05-11T05:25:33.180Z,22.3
2018-05-11T05:26:23.765Z,22.3
2018-05-11T05:27:13.514Z,22.3
2018-05-11T05:28:03.890Z,22.3
2018-05-11T05:28:53.663Z,22.3
2018-05-11T05:29:44.004Z,22.3
2018-05-11T05:30:34.042Z,22.3
2018-05-11T05:31:23.841Z,22.3
2018-05-11T05:32:14.181Z,22.3
2018-05-11T05:33:04.149Z,22.2
2018-05-11T05:33:54.019Z,22.3
2018-05-11T05:34:44.120Z,22.3
2018-05-11T05:35:34.167Z,22.3
2018-05-11T05:36:23.347Z,22.3
2018-05-11T05:37:14.284Z,22.3
2018-05-11T05:38:03.773Z,22.2
2018-05-11T05:38:54.390Z,22.3
2018-05-11T05:39:44.184Z,22.3
2018-05-11T05:40:34.511Z,22.3
2018-05-11T05:41:24.875Z,22.3
2018-05-11T05:42:14.911Z,22.3
2018-05-11T05:43:04.716Z,22.3
2018-05-11T05:43:54.281Z,22.3
2018-05-11T05:44:44.670Z,22.3
2018-05-11T05:45:35.186Z,22.3
2018-05-11T05:46:24.960Z,22.3
2018-05-11T05:47:15.039Z,22.3
2018-05-11T05:48:05.351Z,22.3
2018-05-11T05:48:55.418Z,22.3
2018-05-11T05:49:44.923Z,22.3
2018-05-11T05:50:35.564Z,22.3
2018-05-11T05:51:24.798Z,22.3
2018-05-11T05:52:15.708Z,22.3
2018-05-11T05:53:05.210Z,22.3
2018-05-11T05:53:55.806Z,22.3
2018-05-11T05:54:45.857Z,22.3
2018-05-11T05:55:35.355Z,22.3
2018-05-11T05:56:25.447Z,22.3
2018-05-11T05:57:15.222Z,22.3
2018-05-11T05:58:05.570Z,22.3
2018-05-11T05:58:55.890Z,22.3
2018-05-11T05:59:46.218Z,22.3
2018-05-11T06:00:36.023Z,22.3
2018-05-11T06:01:26.120Z,22.3
2018-05-11T06:02:16.477Z,22.3
2018-05-11T06:03:06.220Z,22.3
2018-05-11T06:03:56.298Z,22.3
2018-05-11T06:04:47.305Z,22.3
2018-05-11T06:05:36.413Z,22.3
2018-05-11T06:06:26.463Z,22.3
2018-05-11T06:07:16.555Z,22.3
2018-05-11T06:08:06.640Z,22.3
2018-05-11T06:08:56.956Z,22.3
2018-05-11T06:09:46.989Z,22.3
2018-05-11T06:10:36.495Z,22.3
2018-05-11T06:11:27.212Z,22.3
2018-05-11T06:12:16.917Z,22.3
2018-05-11T06:13:06.527Z,22.3
2018-05-11T06:13:56.842Z,22.3
2018-05-11T06:14:46.920Z,22.3
2018-05-11T06:15:36.620Z,22.3
2018-05-11T06:16:27.101Z,22.3
2018-05-11T06:17:16.830Z,22.3
2018-05-11T06:18:06.288Z,22.3
2018-05-11T06:18:56.989Z,22.3
2018-05-11T06:19:47.264Z,22.2
2018-05-11T06:20:37.540Z,24.8
2018-05-11T06:21:27.863Z,24.7
2018-05-11T06:22:17.672Z,26.8
2018-05-11T06:23:08.020Z,27.4
2018-05-11T06:23:58.066Z,27.3
2018-05-11T06:24:48.303Z,26.7
2018-05-11T06:25:37.936Z,25.8
2018-05-11T06:26:27.988Z,25.1
2018-05-11T06:27:18.077Z,24.8
2018-05-11T06:28:08.118Z,24.7
2018-05-11T06:28:58.190Z,24.6
2018-05-11T06:29:47.960Z,24.4
2018-05-11T06:30:38.303Z,24.4
2018-05-11T06:31:27.785Z,24.3
2018-05-11T06:32:18.160Z,24.3
2018-05-11T06:33:08.237Z,24.2
2018-05-11T06:33:58.564Z,24.2
2018-05-11T06:34:48.936Z,24.1
2018-05-11T06:35:38.393Z,24.1
2018-05-11T06:36:29.027Z,24
2018-05-11T06:37:19.141Z,24
2018-05-11T06:38:08.595Z,24
2018-05-11T06:38:58.947Z,23.9
2018-05-11T06:39:48.702Z,23.9
2018-05-11T06:40:39.830Z,23.9
2018-05-11T06:41:29.400Z,23.9
2018-05-11T06:42:19.452Z,23.8
2018-05-11T06:43:09.227Z,23.8
2018-05-11T06:43:59.561Z,23.8
2018-05-11T06:44:48.888Z,23.8
2018-05-11T06:45:39.686Z,23.8
2018-05-11T06:46:29.788Z,23.7
2018-05-11T06:47:19.849Z,23.7
2018-05-11T06:48:09.636Z,23.7
2018-05-11T06:48:59.950Z,23.7
2018-05-11T06:49:49.172Z,23.6
2018-05-11T06:50:40.127Z,23.6
2018-05-11T06:51:30.177Z,23.6
2018-05-11T06:52:19.941Z,23.6
2018-05-11T06:53:10.275Z,23.6
2018-05-11T06:54:00.352Z,23.6
2018-05-11T06:54:49.822Z,23.6
2018-05-11T06:55:40.548Z,23.6
2018-05-11T06:56:30.238Z,23.5
2018-05-11T06:57:20.028Z,23.5
2018-05-11T06:58:10.636Z,23.5
2018-05-11T06:58:59.875Z,23.5
2018-05-11T06:59:50.812Z,23.5
2018-05-11T07:00:40.549Z,23.4
2018-05-11T07:01:31.618Z,23.4
2018-05-11T07:02:20.705Z,23.4
2018-05-11T07:03:11.075Z,23.4
2018-05-11T07:04:00.879Z,23.4
2018-05-11T07:04:51.174Z,23.4
2018-05-11T07:05:40.634Z,23.4
2018-05-11T07:06:31.287Z,23.4
2018-05-11T07:07:22.078Z,23.4
2018-05-11T07:08:10.963Z,23.4
2018-05-11T07:09:00.904Z,23.4
2018-05-11T07:09:51.637Z,23.3
2018-05-11T07:10:41.669Z,23.4
2018-05-11T07:11:31.123Z,23.3
2018-05-11T07:12:21.743Z,23.3
2018-05-11T07:13:11.777Z,23.3
2018-05-11T07:14:01.583Z,23.3
2018-05-11T07:14:51.631Z,23.3
2018-05-11T07:15:42.001Z,23.3
2018-05-11T07:16:31.219Z,23.3
2018-05-11T07:17:22.114Z,23.3
2018-05-11T07:18:11.886Z,23.3
2018-05-11T07:19:02.231Z,23.3
2018-05-11T07:19:52.329Z,23.3
2018-05-11T07:20:42.091Z,23.3
2018-05-11T07:21:32.405Z,23.3
2018-05-11T07:22:22.489Z,23.2
2018-05-11T07:23:12.561Z,23.3
2018-05-11T07:24:01.783Z,23.3
2018-05-11T07:24:52.703Z,23.2
2018-05-11T07:25:43.686Z,23.2
2018-05-11T07:26:32.890Z,23.2
2018-05-11T07:27:22.301Z,23.2
2018-05-11T07:28:12.932Z,23.2
2018-05-11T07:29:03.001Z,23.2
2018-05-11T07:29:52.291Z,23.1
2018-05-11T07:30:42.587Z,23.2
2018-05-11T07:31:32.673Z,23.2
2018-05-11T07:32:22.693Z,23.2
2018-05-11T07:33:12.776Z,23.2
2018-05-11T07:34:03.153Z,23.2
2018-05-11T07:34:53.278Z,23.1
2018-05-11T07:35:42.596Z,23.2
2018-05-11T07:36:33.040Z,23.1
2018-05-11T07:37:22.796Z,23.1
2018-05-11T07:38:13.501Z,23.1
2018-05-11T07:39:02.835Z,23.1
2018-05-11T07:39:52.972Z,23.2
2018-05-11T07:40:42.202Z,23.1
2018-05-11T07:41:33.285Z,23.1
2018-05-11T07:42:23.261Z,23
2018-05-11T07:43:14.500Z,25.1
2018-05-11T07:44:03.616Z,25.8
2018-05-11T07:44:53.263Z,28.6
2018-05-11T07:45:43.463Z,29.8
2018-05-11T07:46:34.347Z,29.5
2018-05-11T07:47:24.226Z,28.8
2018-05-11T07:48:13.870Z,28.4
2018-05-11T07:49:04.505Z,28.5
2018-05-11T07:49:54.323Z,28.9
2018-05-11T07:50:44.655Z,29.2
2018-05-11T07:51:35.262Z,29.4
2018-05-11T07:52:24.603Z,29.4
2018-05-11T07:53:13.996Z,29.4
2018-05-11T07:54:04.905Z,29.4
2018-05-11T07:54:55.041Z,29.6
2018-05-11T07:55:44.753Z,29.8
2018-05-11T07:56:34.344Z,29.9
2018-05-11T07:57:25.166Z,29.9
2018-05-11T07:58:14.373Z,30
2018-05-11T07:59:05.035Z,30.1
2018-05-11T07:59:54.788Z,30.1
2018-05-11T08:00:45.456Z,30.2
2018-05-11T08:01:34.619Z,30.3
2018-05-11T08:02:25.262Z,30.3
2018-05-11T08:03:15.293Z,30.4
2018-05-11T08:04:05.856Z,30.4
2018-05-11T08:04:55.734Z,30.5
2018-05-11T08:05:45.756Z,30.6
2018-05-11T08:06:34.509Z,30.6
2018-05-11T08:07:25.654Z,30.8
2018-05-11T08:08:15.492Z,30.8
2018-05-11T08:09:06.013Z,30.9
2018-05-11T08:09:55.531Z,31.1
2018-05-11T08:10:45.888Z,31.1
2018-05-11T08:11:35.685Z,31.3
2018-05-11T08:12:26.292Z,31.4
2018-05-11T08:13:16.106Z,31.5
2018-05-11T08:14:06.616Z,31.6
2018-05-11T08:14:56.220Z,31.8
2018-05-11T08:15:45.787Z,31.9
2018-05-11T08:16:36.354Z,32.1
2018-05-11T08:17:26.733Z,32.2
2018-05-11T08:18:15.303Z,32.4
2018-05-11T08:19:06.261Z,32.6
2018-05-11T08:19:56.595Z,32.8
2018-05-11T08:20:46.492Z,32.8
2018-05-11T08:21:36.435Z,32.9
2018-05-11T08:22:26.797Z,33.1
2018-05-11T08:23:17.154Z,33.3
2018-05-11T08:24:06.918Z,33.6
2018-05-11T08:24:56.786Z,33.9
2018-05-11T08:25:46.281Z,34.1
2018-05-11T08:26:37.143Z,34.3
2018-05-11T08:27:26.311Z,34.7
2018-05-11T08:28:16.551Z,35.1
2018-05-11T08:29:07.347Z,35.4
2018-05-11T08:29:57.358Z,35.6
2018-05-11T08:30:47.130Z,35.7
2018-05-11T08:31:36.982Z,35.9
2018-05-11T08:32:26.694Z,36.3
2018-05-11T08:33:17.373Z,36.4
2018-05-11T08:34:06.944Z,36.6
2018-05-11T08:34:56.884Z,36.8
2018-05-11T08:35:48.402Z,37.1
2018-05-11T08:36:38.155Z,37.5
2018-05-11T08:37:27.489Z,37.8
2018-05-11T08:38:18.145Z,37.7
2018-05-11T08:39:06.386Z,37.4
2018-05-11T08:39:58.166Z,37.4
2018-05-11T08:40:47.310Z,37.7
2018-05-11T08:41:38.514Z,38.1
2018-05-11T08:42:28.311Z,38.6
2018-05-11T08:43:17.827Z,38.9
2018-05-11T08:44:08.424Z,39.2
2018-05-11T08:44:58.801Z,39.3
2018-05-11T08:45:48.690Z,39.1
2018-05-11T08:46:38.883Z,38.9
2018-05-11T08:47:28.398Z,38.7
2018-05-11T08:48:18.814Z,38.6
2018-05-11T08:49:09.073Z,38.6
2018-05-11T08:49:59.133Z,38.5
2018-05-11T08:50:48.670Z,38.4
2018-05-11T08:51:39.281Z,38.4
2018-05-11T08:52:29.073Z,38.4
2018-05-11T08:53:19.118Z,38.4
2018-05-11T08:54:08.361Z,38.8
2018-05-11T08:54:59.264Z,39.4
2018-05-11T08:55:49.981Z,40.1
2018-05-11T08:56:38.813Z,40.4
2018-05-11T08:57:29.745Z,40.6
2018-05-11T08:58:19.215Z,40.8
2018-05-11T08:59:09.829Z,41.3
2018-05-11T08:59:59.649Z,41.7
2018-05-11T09:00:49.955Z,42
2018-05-11T09:01:40.025Z,42.3
2018-05-11T09:02:29.845Z,42.5
2018-05-11T09:03:20.288Z,42.7
2018-05-11T09:04:10.238Z,42.9
2018-05-11T09:04:59.486Z,43.2
2018-05-11T09:05:49.556Z,43.3
2018-05-11T09:06:40.472Z,43.5
2018-05-11T09:07:30.197Z,43.7
2018-05-11T09:08:20.886Z,44
2018-05-11T09:09:10.043Z,44.3
2018-05-11T09:10:00.652Z,44.4
2018-05-11T09:10:50.758Z,44.6
2018-05-11T09:11:40.796Z,44.8
2018-05-11T09:12:30.414Z,44.7
2018-05-11T09:13:20.622Z,44.4
2018-05-11T09:14:10.426Z,44.1
2018-05-11T09:15:01.189Z,44
2018-05-11T09:15:50.254Z,43.9
2018-05-11T09:16:40.891Z,43.9
2018-05-11T09:17:30.682Z,43.8
2018-05-11T09:18:21.364Z,43.7
2018-05-11T09:19:11.122Z,43.6
2018-05-11T09:20:01.134Z,43.6
2018-05-11T09:20:51.614Z,43.6
2018-05-11T09:21:41.363Z,43.6
2018-05-11T09:22:31.344Z,43.6
2018-05-11T09:23:21.743Z,43.6
2018-05-11T09:24:11.456Z,43.8
2018-05-11T09:25:01.589Z,44.1
2018-05-11T09:25:51.618Z,44.4
2018-05-11T09:26:41.399Z,44.7
2018-05-11T09:27:31.744Z,45
2018-05-11T09:28:21.799Z,45.3
2018-05-11T09:29:11.279Z,45.7
2018-05-11T09:30:02.233Z,46.1
2018-05-11T09:30:52.244Z,46.3
2018-05-11T09:31:41.994Z,46.5
2018-05-11T09:32:32.103Z,46.8
2018-05-11T09:33:22.179Z,47
2018-05-11T09:34:12.258Z,47.2
2018-05-11T09:35:02.306Z,47.3
2018-05-11T09:35:52.650Z,47.5
2018-05-11T09:36:42.670Z,47.7
2018-05-11T09:37:32.200Z,47.9
2018-05-11T09:38:22.811Z,48.1
2018-05-11T09:39:13.001Z,48.3
2018-05-11T09:40:02.935Z,48.4
2018-05-11T09:40:52.755Z,48.4
2018-05-11T09:41:43.069Z,48.4
2018-05-11T09:42:33.115Z,48.4
2018-05-11T09:43:22.661Z,48.6
2018-05-11T09:44:13.266Z,48.9
2018-05-11T09:45:02.774Z,49.1
2018-05-11T09:45:52.873Z,49.3
2018-05-11T09:46:43.186Z,49.4
2018-05-11T09:47:33.508Z,49.6
2018-05-11T09:48:23.010Z,49.8
2018-05-11T09:49:13.380Z,49.9
2018-05-11T09:50:03.162Z,50.1
2018-05-11T09:50:53.518Z,50.2
2018-05-11T09:51:43.322Z,50.3
2018-05-11T09:52:33.623Z,50.4
2018-05-11T09:53:23.398Z,50.4
2018-05-11T09:54:13.493Z,50.5
2018-05-11T09:55:04.465Z,50.5
2018-05-11T09:55:53.944Z,50.6
2018-05-11T09:56:43.984Z,50.7
2018-05-11T09:57:34.295Z,50.8
2018-05-11T09:58:24.348Z,51
2018-05-11T09:59:13.128Z,51.2
2018-05-11T10:00:04.220Z,51.3
2018-05-11T10:00:55.930Z,51.4
2018-05-11T10:01:43.711Z,51.6
2018-05-11T10:02:34.724Z,51.7
2018-05-11T10:03:24.746Z,51.6
2018-05-11T10:04:14.046Z,51.6
2018-05-11T10:05:03.816Z,51.8
2018-05-11T10:05:54.694Z,52
2018-05-11T10:06:44.761Z,52.1
2018-05-11T10:07:35.069Z,52
2018-05-11T10:08:24.863Z,51.8
2018-05-11T10:09:14.932Z,51.9
2018-05-11T10:10:05.012Z,52.1
2018-05-11T10:10:55.061Z,52.4
2018-05-11T10:11:45.411Z,52.6
2018-05-11T10:12:35.468Z,52.8
2018-05-11T10:13:24.936Z,52.8
2018-05-11T10:14:15.074Z,52.7
2018-05-11T10:15:05.643Z,52.8
2018-05-11T10:15:55.106Z,53
2018-05-11T10:16:45.486Z,53.3
2018-05-11T10:17:35.842Z,53.4
2018-05-11T10:18:25.625Z,53.6
2018-05-11T10:19:15.677Z,53.7
2018-05-11T10:20:05.729Z,53.7
2018-05-11T10:20:55.830Z,53.8
2018-05-11T10:21:45.632Z,54
2018-05-11T10:22:35.613Z,54.1
2018-05-11T10:23:25.687Z,53.9
2018-05-11T10:24:16.325Z,53.6
2018-05-11T10:25:05.263Z,53.3
2018-05-11T10:25:55.604Z,52.9
2018-05-11T10:26:46.274Z,52.8
2018-05-11T10:27:36.298Z,52.7
2018-05-11T10:28:25.620Z,52.7
2018-05-11T10:29:16.118Z,53
2018-05-11T10:30:06.086Z,53.1
2018-05-11T10:30:56.849Z,52.9
2018-05-11T10:31:46.352Z,52.9
2018-05-11T10:32:36.702Z,53
2018-05-11T10:33:26.774Z,53.1
2018-05-11T10:34:16.830Z,53.4
2018-05-11T10:35:06.734Z,53.8
2018-05-11T10:35:57.264Z,54.1
2018-05-11T10:36:47.046Z,54.4
2018-05-11T10:37:37.098Z,54.6
2018-05-11T10:38:26.862Z,54.8
2018-05-11T10:39:16.954Z,54.9
2018-05-11T10:40:07.018Z,55.1
2018-05-11T10:40:57.329Z,55.1
2018-05-11T10:41:47.688Z,54.7
2018-05-11T10:42:37.189Z,54.3
2018-05-11T10:43:27.674Z,53.8
2018-05-11T10:44:16.529Z,53.4
2018-05-11T10:45:07.659Z,53.2
2018-05-11T10:45:57.436Z,52.9
2018-05-11T10:46:47.876Z,52.7
2018-05-11T10:47:37.863Z,52.4
2018-05-11T10:48:28.466Z,52.2
2018-05-11T10:50:08.014Z,51.8
2018-05-11T10:50:58.365Z,51.6
2018-05-11T10:51:48.232Z,51.4
2018-05-11T10:52:38.527Z,51.3
2018-05-11T10:53:28.333Z,50.6
2018-05-11T10:54:17.897Z,49
2018-05-11T10:55:08.214Z,47.3
2018-05-11T10:55:57.943Z,45.8
2018-05-11T10:56:48.561Z,45.3
2018-05-11T10:57:38.346Z,49.3
2018-05-11T10:58:28.413Z,49.6
2018-05-11T10:59:18.188Z,48.3
2018-05-11T11:00:09.050Z,46.9
2018-05-11T11:00:59.195Z,46
2018-05-11T11:01:49.220Z,45.4
2018-05-11T11:02:39.381Z,44.8
2018-05-11T11:03:29.080Z,44.2
2018-05-11T11:04:18.668Z,43.6
2018-05-11T11:05:09.267Z,43.1
2018-05-11T11:05:59.505Z,42.7
2018-05-11T11:06:49.300Z,42.4
2018-05-11T11:07:39.427Z,42
2018-05-11T11:08:29.715Z,41.7
2018-05-11T11:09:19.760Z,41.4